Time;durP1;ratioP1;P1;durP2;ratioP2;P2;SDS_P1;SDS_P2;PMS_P1;PMS_P2;Temp;Humidity;BMP_temperature;BMP_pressure;BME280_temperature;BME280_humidity;BME280_pressure;Samples;Min_cycle;Max_cycle;Signal;HPM_P1;HPM_P2
2023/03/03 00:00:51;;;;;;;32.13;20.53;;;;;;;0.15;100.00;102250.88;5068274;28;20036;-65
2023/03/03 00:03:20;;;;;;;33.73;21.43;;;;;;;0.11;100.00;102245.47;5068922;28;20032;-65
2023/03/03 00:05:46;;;;;;;32.43;21.70;;;;;;;0.08;100.00;102245.19;5068092;28;20027;-65
2023/03/03 00:08:12;;;;;;;31.70;20.93;;;;;;;0.05;100.00;102256.75;5068090;28;20032;-65
2023/03/03 00:10:38;;;;;;;29.80;21.27;;;;;;;0.04;100.00;102242.19;5067990;28;20039;-65
2023/03/03 00:13:15;;;;;;;32.43;21.50;;;;;;;0.05;100.00;102244.00;5068153;28;20043;-65
2023/03/03 00:15:41;;;;;;;32.53;22.30;;;;;;;0.06;100.00;102246.69;5067935;28;20390;-65
2023/03/03 00:18:21;;;;;;;33.73;22.80;;;;;;;0.11;100.00;102249.66;5068167;28;20294;-65
2023/03/03 00:20:59;;;;;;;32.50;21.92;;;;;;;0.11;100.00;102253.13;5067537;28;20065;-65
2023/03/03 00:23:30;;;;;;;35.33;22.67;;;;;;;0.15;100.00;102259.44;5067983;28;20028;-65
2023/03/03 00:25:56;;;;;;;33.03;22.30;;;;;;;0.15;100.00;102254.34;5068371;28;20020;-65
2023/03/03 00:28:29;;;;;;;34.00;21.33;;;;;;;0.14;100.00;102255.09;5068321;28;20021;-65
2023/03/03 00:30:56;;;;;;;32.43;22.17;;;;;;;0.15;100.00;102255.97;5068064;28;20028;-65
2023/03/03 00:33:32;;;;;;;31.40;21.30;;;;;;;0.15;100.00;102256.88;5067854;28;20102;-65
2023/03/03 00:36:40;;;;;;;36.03;21.47;;;;;;;0.15;100.00;102254.34;5068065;28;20427;-65
2023/03/03 00:39:29;;;;;;;33.43;20.77;;;;;;;0.13;100.00;102249.84;5066450;28;20068;-65
2023/03/03 00:41:56;;;;;;;31.40;21.97;;;;;;;0.16;100.00;102251.06;5067924;28;20032;-65
2023/03/03 00:44:42;;;;;;;32.90;21.90;;;;;;;0.16;100.00;102256.16;5067440;28;20123;-65
2023/03/03 00:47:27;;;;;;;33.03;21.20;;;;;;;0.17;100.00;102262.13;5067662;28;20020;-65
2023/03/03 00:50:16;;;;;;;33.57;22.87;;;;;;;0.17;100.00;102262.13;5067389;28;20305;-65
2023/03/03 00:52:59;;;;;;;37.10;22.80;;;;;;;0.18;100.00;102259.72;5065609;28;20032;-65
2023/03/03 00:55:24;;;;;;;31.03;21.17;;;;;;;0.19;100.00;102261.53;5067665;28;20024;-65
2023/03/03 00:57:49;;;;;;;33.87;21.80;;;;;;;0.20;100.00;102260.78;5067718;28;20093;-65
2023/03/03 01:00:15;;;;;;;29.90;21.17;;;;;;;0.21;100.00;102260.03;5067464;28;20059;-65
2023/03/03 01:02:40;;;;;;;31.37;21.63;;;;;;;0.21;100.00;102264.22;5067275;28;20025;-65
2023/03/03 01:05:06;;;;;;;31.97;20.93;;;;;;;0.20;100.00;102264.97;5066922;28;20044;-65
2023/03/03 01:07:31;;;;;;;28.87;20.47;;;;;;;0.21;100.00;102269.34;5067283;28;20040;-65
2023/03/03 01:09:56;;;;;;;32.30;21.13;;;;;;;0.21;100.00;102269.34;5067344;28;20032;-65
2023/03/03 01:12:23;;;;;;;31.23;20.20;;;;;;;0.20;100.00;102268.44;5066883;28;20567;-65
2023/03/03 01:14:51;;;;;;;30.03;20.70;;;;;;;0.22;100.00;102269.47;5067062;28;20028;-65
2023/03/03 01:17:17;;;;;;;30.93;20.10;;;;;;;0.19;100.00;102269.19;5067608;28;20031;-65
2023/03/03 01:19:42;;;;;;;30.60;20.20;;;;;;;0.21;100.00;102269.34;5066717;28;20392;-65
2023/03/03 01:22:07;;;;;;;29.20;19.90;;;;;;;0.19;100.00;102276.84;5067134;28;20043;-65
2023/03/03 01:24:32;;;;;;;30.63;20.20;;;;;;;0.20;100.00;102272.63;5067309;28;20024;-65
2023/03/03 01:26:58;;;;;;;32.00;20.33;;;;;;;0.20;100.00;102286.28;5067211;28;20383;-65
2023/03/03 01:29:23;;;;;;;29.80;20.17;;;;;;;0.22;100.00;102284.78;5066898;28;20029;-65
2023/03/03 01:31:48;;;;;;;30.13;20.47;;;;;;;0.21;100.00;102280.44;5066529;28;20034;-65
2023/03/03 01:34:14;;;;;;;29.67;19.53;;;;;;;0.21;100.00;102279.53;5067213;28;20078;-65
2023/03/03 01:36:39;;;;;;;30.00;19.43;;;;;;;0.20;100.00;102280.25;5067356;28;20043;-65
2023/03/03 01:39:04;;;;;;;29.27;19.93;;;;;;;0.17;100.00;102293.63;5067435;28;20028;-65
2023/03/03 01:41:32;;;;;;;30.17;19.13;;;;;;;0.14;100.00;102295.88;5066605;28;20032;-65
2023/03/03 01:43:58;;;;;;;28.17;19.10;;;;;;;0.10;100.00;102296.34;5067468;28;20036;-65
2023/03/03 01:46:23;;;;;;;30.60;20.37;;;;;;;0.06;100.00;102304.41;5066884;28;20166;-65
2023/03/03 01:48:52;;;;;;;28.07;19.13;;;;;;;0.03;100.00;102293.94;5066706;28;20040;-65
2023/03/03 01:51:47;;;;;;;26.73;19.20;;;;;;;0.02;100.00;102292.13;5068449;28;20039;-65
2023/03/03 01:54:22;;;;;;;28.47;19.70;;;;;;;-0.01;100.00;102295.28;5070372;28;20201;-65
2023/03/03 01:56:49;;;;;;;29.33;19.47;;;;;;;-0.02;100.00;102294.38;5070655;28;20533;-65
2023/03/03 01:59:24;;;;;;;27.70;18.77;;;;;;;-0.02;100.00;102294.38;5070979;28;20159;-65
2023/03/03 02:01:49;;;;;;;29.17;19.17;;;;;;;-0.03;100.00;102284.94;5070884;28;20036;-65
2023/03/03 02:04:17;;;;;;;29.50;19.37;;;;;;;-0.04;100.00;102290.78;5070154;28;20016;-65
2023/03/03 02:06:51;;;;;;;28.60;19.03;;;;;;;-0.08;100.00;102285.22;5070702;28;20025;-65
2023/03/03 02:09:22;;;;;;;29.17;19.83;;;;;;;-0.13;100.00;102279.69;5070572;28;20035;-65
2023/03/03 02:11:49;;;;;;;;;;;;;;;-0.15;100.00;102279.53;5069001;28;20024;-65
2023/03/03 02:14:15;;;;;;;25.13;16.63;;;;;;;-0.16;100.00;102287.00;5070047;28;19916;-65
2023/03/03 02:16:40;;;;;;;30.97;19.93;;;;;;;-0.21;100.00;102293.28;5070375;28;20016;-65
2023/03/03 02:19:16;;;;;;;29.50;19.57;;;;;;;-0.26;100.00;102291.22;5070275;28;20020;-65
2023/03/03 02:21:42;;;;;;;30.40;19.53;;;;;;;-0.29;100.00;102290.88;5070153;28;20451;-65
2023/03/03 02:24:32;;;;;;;29.67;20.57;;;;;;;-0.32;100.00;102290.56;5070052;28;20029;-65
2023/03/03 02:26:57;;;;;;;33.17;20.33;;;;;;;-0.34;100.00;102292.06;5069571;28;20466;-65
2023/03/03 02:29:23;;;;;;;32.00;20.00;;;;;;;-0.34;100.00;102292.06;5070077;28;20066;-65
2023/03/03 02:31:48;;;;;;;29.27;19.63;;;;;;;-0.34;100.00;102289.53;5069811;28;20131;-65
2023/03/03 02:34:13;;;;;;;30.73;19.60;;;;;;;-0.36;100.00;102285.94;5069725;28;20031;-65
2023/03/03 02:36:39;;;;;;;30.13;19.57;;;;;;;-0.37;100.00;102287.59;5070017;28;20040;-65
2023/03/03 02:39:18;;;;;;;31.93;20.50;;;;;;;-0.40;100.00;102292.38;5070081;28;20024;-65
2023/03/03 02:42:05;;;;;;;33.00;21.17;;;;;;;-0.41;100.00;102282.00;5070156;28;20028;-65
2023/03/03 02:44:31;;;;;;;32.47;20.53;;;;;;;-0.43;100.00;102280.97;5070013;28;20036;-65
2023/03/03 02:46:57;;;;;;;34.60;21.20;;;;;;;-0.42;100.00;102287.88;5069700;28;20419;-65
2023/03/03 02:49:25;;;;;;;33.40;21.90;;;;;;;-0.40;100.00;102292.38;5069730;28;20052;-65
2023/03/03 02:51:51;;;;;;;31.03;19.97;;;;;;;-0.39;100.00;102291.63;5069300;28;20032;-65
2023/03/03 02:54:19;;;;;;;29.37;19.73;;;;;;;-0.38;100.00;102285.75;5069453;28;20025;-65
2023/03/03 02:56:45;;;;;;;29.90;19.67;;;;;;;-0.37;100.00;102284.13;5069470;28;20086;-65
2023/03/03 02:59:11;;;;;;;29.93;20.07;;;;;;;-0.35;100.00;102285.19;5070052;28;20036;-65
2023/03/03 03:01:36;;;;;;;33.93;20.80;;;;;;;-0.33;100.00;102290.44;5069686;28;20060;-65
2023/03/03 03:04:14;;;;;;;29.07;18.57;;;;;;;-0.34;100.00;102289.53;5068795;28;20063;-65
2023/03/03 03:06:40;;;;;;;27.73;19.20;;;;;;;-0.34;100.00;102291.19;5069441;28;20108;-65
2023/03/03 03:09:06;;;;;;;32.20;20.53;;;;;;;-0.33;100.00;102298.97;5069463;28;20161;-65
2023/03/03 03:11:34;;;;;;;32.00;19.93;;;;;;;-0.31;100.00;102291.50;5069269;28;20504;-65
2023/03/03 03:13:59;;;;;;;31.43;19.97;;;;;;;-0.33;100.00;102291.34;5069246;28;20028;-64
2023/03/03 03:16:24;;;;;;;28.80;18.87;;;;;;;-0.34;100.00;102297.16;5069184;28;20052;-65
2023/03/03 03:18:50;;;;;;;27.37;17.73;;;;;;;-0.35;100.00;102295.38;5068865;28;20368;-65
2023/03/03 03:21:15;;;;;;;29.23;19.43;;;;;;;-0.36;100.00;102296.13;5069096;28;20028;-65
2023/03/03 03:23:41;;;;;;;30.13;18.63;;;;;;;-0.36;100.00;102293.59;5069078;28;20032;-65
2023/03/03 03:26:07;;;;;;;27.87;17.60;;;;;;;-0.38;100.00;102295.97;5069432;28;20024;-65
2023/03/03 03:28:33;;;;;;;27.73;18.20;;;;;;;-0.41;100.00;102290.56;5069343;28;20032;-65
2023/03/03 03:30:58;;;;;;;28.70;18.77;;;;;;;-0.42;100.00;102303.16;5068903;28;20029;-65
2023/03/03 03:33:24;;;;;;;29.73;19.07;;;;;;;-0.43;100.00;102304.78;5068139;28;20036;-65
2023/03/03 03:35:50;;;;;;;27.70;18.17;;;;;;;-0.42;100.00;102298.97;5069070;28;20158;-65
2023/03/03 03:38:15;;;;;;;30.07;18.43;;;;;;;-0.41;100.00;102297.28;5068944;28;20028;-65
2023/03/03 03:40:42;;;;;;;28.83;19.00;;;;;;;-0.40;100.00;102300.03;5069008;28;20234;-65
2023/03/03 03:43:07;;;;;;;26.80;18.40;;;;;;;-0.37;100.00;102305.41;5068190;28;20029;-65
2023/03/03 03:45:33;;;;;;;30.70;18.40;;;;;;;-0.34;100.00;102302.25;5069071;28;20478;-65
2023/03/03 03:47:58;;;;;;;27.97;18.20;;;;;;;-0.33;100.00;102298.97;5069161;28;20376;-65
2023/03/03 03:50:23;;;;;;;27.50;18.00;;;;;;;-0.33;100.00;102298.97;5068288;28;20079;-65
2023/03/03 03:52:49;;;;;;;29.23;18.03;;;;;;;-0.34;100.00;102302.25;5068438;28;20028;-65
2023/03/03 03:55:15;;;;;;;32.57;17.60;;;;;;;-0.35;100.00;102313.22;5068017;28;20029;-65
2023/03/03 03:57:41;;;;;;;32.93;18.63;;;;;;;-0.37;100.00;102318.16;5068493;28;20027;-65
2023/03/03 04:00:08;;;;;;;26.13;17.60;;;;;;;-0.37;100.00;102314.69;5068450;28;20035;-65
2023/03/03 04:02:34;;;;;;;26.30;16.97;;;;;;;-0.41;100.00;102312.59;5068248;28;20025;-65
2023/03/03 04:04:59;;;;;;;28.33;17.10;;;;;;;-0.43;100.00;102321.75;5068332;28;20032;-65
2023/03/03 04:07:25;;;;;;;26.40;17.47;;;;;;;-0.44;100.00;102322.47;5067865;28;20040;-64
2023/03/03 04:09:50;;;;;;;27.37;17.80;;;;;;;-0.46;100.00;102326.50;5068218;28;20111;-64
2023/03/03 04:12:16;;;;;;;29.20;17.23;;;;;;;-0.46;100.00;102326.50;5068308;28;20469;-65
2023/03/03 04:14:41;;;;;;;26.13;16.93;;;;;;;-0.47;100.00;102318.00;5067775;28;20032;-65
2023/03/03 04:17:06;;;;;;;27.57;17.03;;;;;;;-0.46;100.00;102321.41;5067793;28;20380;-65
2023/03/03 04:19:31;;;;;;;25.80;15.93;;;;;;;-0.47;100.00;102319.63;5068326;28;20153;-65
2023/03/03 04:21:57;;;;;;;26.30;16.37;;;;;;;-0.46;100.00;102321.41;5068089;28;20024;-65
2023/03/03 04:24:22;;;;;;;23.33;15.83;;;;;;;-0.52;100.00;102320.06;5068438;28;20024;-65
2023/03/03 04:26:47;;;;;;;26.80;16.33;;;;;;;-0.54;100.00;102323.22;5067684;28;20097;-64
2023/03/03 04:29:12;;;;;;;25.00;16.50;;;;;;;-0.52;100.00;102319.16;5067244;28;20036;-65
2023/03/03 04:31:38;;;;;;;25.50;16.50;;;;;;;-0.54;100.00;102320.66;5067635;28;20621;-65
2023/03/03 04:34:04;;;;;;;23.80;15.70;;;;;;;-0.53;100.00;102320.81;5067637;28;20032;-65
2023/03/03 04:36:29;;;;;;;24.17;16.83;;;;;;;-0.53;100.00;102331.00;5067768;28;20283;-65
2023/03/03 04:38:55;;;;;;;27.40;16.50;;;;;;;-0.55;100.00;102321.38;5067679;28;20467;-65
2023/03/03 04:41:20;;;;;;;25.90;16.37;;;;;;;-0.55;100.00;102316.28;5067547;28;20081;-65
2023/03/03 04:43:45;;;;;;;24.47;17.00;;;;;;;-0.54;100.00;102326.63;5067104;28;20028;-65
2023/03/03 04:46:10;;;;;;;25.20;16.43;;;;;;;-0.55;100.00;102322.28;5067456;28;20111;-65
2023/03/03 04:48:37;;;;;;;25.07;15.70;;;;;;;-0.56;100.00;102320.50;5067868;28;20369;-65
2023/03/03 04:51:02;;;;;;;26.03;16.50;;;;;;;-0.55;100.00;102317.19;5067584;28;20083;-65
2023/03/03 04:53:29;;;;;;;25.80;17.07;;;;;;;-0.55;100.00;102312.09;5066529;28;20135;-65
2023/03/03 04:55:54;;;;;;;27.30;17.60;;;;;;;-0.54;100.00;102321.53;5067691;28;20103;-65
2023/03/03 04:58:20;;;;;;;25.30;16.13;;;;;;;-0.52;100.00;102326.81;5066593;28;20039;-65
2023/03/03 05:00:52;;;;;;;26.37;16.83;;;;;;;-0.53;100.00;102330.09;5067278;28;20032;-65
2023/03/03 05:03:18;;;;;;;26.20;16.30;;;;;;;-0.55;100.00;102324.84;5067922;28;20125;-65
2023/03/03 05:05:45;;;;;;;30.37;17.90;;;;;;;-0.55;100.00;102326.47;5067475;28;20064;-65
2023/03/03 05:08:10;;;;;;;29.67;17.67;;;;;;;-0.55;100.00;102329.03;5067176;28;20123;-65
2023/03/03 05:10:36;;;;;;;28.73;19.27;;;;;;;-0.56;100.00;102330.69;5067472;28;20127;-64
2023/03/03 05:13:01;;;;;;;30.57;19.20;;;;;;;-0.54;100.00;102331.72;5067080;28;20472;-65
2023/03/03 05:15:26;;;;;;;31.77;19.93;;;;;;;-0.52;100.00;102330.25;5067119;28;20028;-64
2023/03/03 05:17:52;;;;;;;29.83;18.23;;;;;;;-0.51;100.00;102328.59;5067131;28;20048;-64
2023/03/03 05:20:17;;;;;;;27.57;18.03;;;;;;;-0.49;100.00;102335.63;5066649;28;20037;-65
2023/03/03 05:22:43;;;;;;;30.07;18.17;;;;;;;-0.49;100.00;102333.09;5066802;28;20127;-64
2023/03/03 05:25:10;;;;;;;28.97;17.93;;;;;;;-0.47;100.00;102340.00;5067358;28;20089;-64
2023/03/03 05:27:35;;;;;;;29.73;17.87;;;;;;;-0.45;100.00;102338.50;5071096;28;20098;-65
2023/03/03 05:30:00;;;;;;;25.17;16.20;;;;;;;-0.43;100.00;102331.94;5070667;28;20028;-65
2023/03/03 05:32:26;;;;;;;32.37;19.83;;;;;;;-0.42;100.00;102336.28;5071067;28;20025;-65
2023/03/03 05:34:51;;;;;;;29.30;17.90;;;;;;;-0.41;100.00;102335.50;5071277;28;20087;-64
2023/03/03 05:37:16;;;;;;;28.30;17.63;;;;;;;-0.38;100.00;102346.03;5071609;28;20021;-65
2023/03/03 05:39:43;;;;;;;30.43;17.23;;;;;;;-0.37;100.00;102342.72;5070398;28;20044;-64
2023/03/03 05:42:10;;;;;;;27.57;15.80;;;;;;;-0.35;100.00;102335.22;5070660;28;20040;-64
2023/03/03 05:44:35;;;;;;;28.00;17.77;;;;;;;-0.33;100.00;102338.84;5070866;28;20425;-65
2023/03/03 05:47:00;;;;;;;30.43;19.20;;;;;;;-0.32;100.00;102339.00;5070534;28;20020;-64
2023/03/03 05:49:26;;;;;;;30.70;17.87;;;;;;;-0.32;100.00;102339.00;5071023;28;20056;-64
2023/03/03 05:51:52;;;;;;;25.30;16.40;;;;;;;-0.30;100.00;102344.25;5071325;28;20758;-65
2023/03/03 05:54:17;;;;;;;31.07;19.03;;;;;;;-0.29;100.00;102343.50;5071161;28;20091;-65
2023/03/03 05:56:42;;;;;;;29.33;17.50;;;;;;;-0.28;100.00;102343.66;5070253;28;20123;-65
2023/03/03 05:59:08;;;;;;;28.07;17.53;;;;;;;-0.28;100.00;102336.00;5070546;28;20102;-64
2023/03/03 06:01:33;;;;;;;26.37;16.93;;;;;;;-0.25;100.00;102340.50;5070119;28;20033;-65
2023/03/03 06:03:58;;;;;;;27.77;16.63;;;;;;;-0.25;100.00;102349.06;5070425;28;20093;-65
2023/03/03 06:06:23;;;;;;;29.93;18.63;;;;;;;-0.25;100.00;102340.50;5070585;28;20023;-65
2023/03/03 06:08:49;;;;;;;30.03;17.17;;;;;;;-0.25;100.00;102346.50;5070637;28;20031;-65
2023/03/03 06:11:15;;;;;;;29.03;17.07;;;;;;;-0.21;100.00;102341.72;5070099;28;20056;-64
2023/03/03 06:13:41;;;;;;;29.77;16.87;;;;;;;-0.20;100.00;102351.19;5070388;28;20115;-65
2023/03/03 06:16:07;;;;;;;27.70;17.53;;;;;;;-0.20;100.00;102352.09;5070167;28;20643;-65
2023/03/03 06:18:32;;;;;;;30.70;17.33;;;;;;;-0.19;100.00;102358.06;5068309;28;20032;-65
2023/03/03 06:20:57;;;;;;;29.97;18.97;;;;;;;-0.17;100.00;102361.66;5066942;28;20111;-64
2023/03/03 06:23:23;;;;;;;28.37;17.47;;;;;;;-0.15;100.00;102362.72;5068581;28;20029;-65
2023/03/03 06:25:48;;;;;;;29.87;17.77;;;;;;;-0.15;100.00;102361.09;5068431;28;20034;-65
2023/03/03 06:28:14;;;;;;;26.83;16.67;;;;;;;-0.12;100.00;102370.66;5067791;28;20013;-64
2023/03/03 06:30:39;;;;;;;27.40;17.27;;;;;;;-0.11;100.00;102364.84;5067705;28;20032;-65
2023/03/03 06:33:05;;;;;;;29.50;16.97;;;;;;;-0.10;100.00;102375.91;5066947;28;20419;-65
2023/03/03 06:35:30;;;;;;;28.67;17.17;;;;;;;-0.10;100.00;102376.84;5067793;28;20420;-65
2023/03/03 06:37:55;;;;;;;29.47;17.93;;;;;;;-0.09;100.00;102386.25;5067936;28;20020;-65
2023/03/03 06:40:21;;;;;;;27.43;17.83;;;;;;;-0.09;100.00;102381.16;5069935;28;20033;-65
2023/03/03 06:42:46;;;;;;;26.43;16.80;;;;;;;-0.07;100.00;102389.00;5069863;28;20441;-65
2023/03/03 06:45:13;;;;;;;25.43;15.83;;;;;;;-0.06;100.00;102380.59;5069880;28;20472;-65
2023/03/03 06:47:38;;;;;;;26.23;16.97;;;;;;;-0.05;100.00;102392.56;5069734;28;20033;-65
2023/03/03 06:50:04;;;;;;;27.93;16.77;;;;;;;-0.03;100.00;102393.63;5069531;28;20496;-65
2023/03/03 06:52:29;;;;;;;30.60;18.17;;;;;;;-0.02;100.00;102392.91;5069419;28;20082;-64
2023/03/03 06:54:58;;;;;;;29.93;17.83;;;;;;;0.00;100.00;102406.72;5069409;28;20032;-65
2023/03/03 06:57:31;;;;;;;26.03;16.67;;;;;;;0.02;100.00;102404.31;5069766;28;20117;-65
2023/03/03 07:00:01;;;;;;;25.77;16.10;;;;;;;0.05;100.00;102414.81;5069161;28;20055;-65
2023/03/03 07:02:26;;;;;;;23.77;15.30;;;;;;;0.07;100.00;102413.31;5069560;28;20032;-65
2023/03/03 07:04:55;;;;;;;26.07;16.33;;;;;;;0.08;100.00;102415.09;5069403;28;20027;-65
2023/03/03 07:07:23;;;;;;;29.17;16.73;;;;;;;0.10;100.00;102413.63;5068837;28;20075;-65
2023/03/03 07:09:52;;;;;;;27.43;17.17;;;;;;;0.11;100.00;102415.41;5069882;28;20052;-64
2023/03/03 07:12:23;;;;;;;28.50;17.67;;;;;;;0.14;100.00;102409.72;5068590;28;20024;-65
2023/03/03 07:14:54;;;;;;;27.07;16.23;;;;;;;0.15;100.00;102409.88;5069359;28;20145;-64
2023/03/03 07:17:22;;;;;;;30.17;17.15;;;;;;;0.17;100.00;102416.03;5069209;28;20362;-65
2023/03/03 07:19:48;;;;;;;25.87;16.63;;;;;;;0.20;100.00;102410.31;5069144;28;20027;-65
2023/03/03 07:22:26;;;;;;;27.43;17.30;;;;;;;0.21;100.00;102415.59;5068959;28;20016;-64
2023/03/03 07:24:53;;;;;;;25.60;16.63;;;;;;;0.23;100.00;102420.84;5068937;28;20519;-65
2023/03/03 07:27:24;;;;;;;29.73;16.80;;;;;;;0.25;100.00;102413.34;5068758;28;20040;-64
2023/03/03 07:29:52;;;;;;;29.42;16.27;;;;;;;0.27;100.00;102415.28;5069026;28;20384;-65
2023/03/03 07:32:40;;;;;;;26.60;16.00;;;;;;;0.30;100.00;102417.25;5068947;28;20062;-65
2023/03/03 07:35:41;;;;;;;27.10;15.70;;;;;;;0.32;100.00;102415.75;5068645;28;20069;-65
2023/03/03 07:38:12;;;;;;;24.33;15.20;;;;;;;0.33;100.00;102433.75;5069308;28;20028;-65
2023/03/03 07:40:46;;;;;;;25.87;15.27;;;;;;;0.35;100.00;102431.38;5069201;28;20089;-64
2023/03/03 07:43:23;;;;;;;23.73;16.10;;;;;;;0.37;100.00;102429.88;5068652;28;20107;-65
2023/03/03 07:45:48;;;;;;;30.23;17.63;;;;;;;0.39;100.00;102436.03;5068961;28;20029;-65
2023/03/03 07:48:43;;;;;;;27.33;16.53;;;;;;;0.40;100.00;102435.25;5068905;28;20460;-65
2023/03/03 07:51:26;;;;;;;27.97;16.33;;;;;;;0.43;100.00;102445.75;5063619;28;20492;-64
2023/03/03 07:54:13;;;;;;;27.17;15.40;;;;;;;0.45;100.00;102446.81;5068892;28;20444;-64
2023/03/03 07:56:39;;;;;;;29.13;15.90;;;;;;;0.45;100.00;102444.28;5068363;28;20094;-65
2023/03/03 07:59:25;;;;;;;23.77;14.33;;;;;;;0.49;100.00;102444.59;5068425;28;20021;-65
2023/03/03 08:02:00;;;;;;;26.90;15.40;;;;;;;0.52;100.00;102450.00;5068205;28;20031;-65
2023/03/03 08:04:35;;;;;;;24.30;14.50;;;;;;;0.55;100.00;102451.19;5068453;28;20024;-65
2023/03/03 08:07:01;;;;;;;23.30;13.53;;;;;;;0.57;100.00;102453.91;5068175;28;20528;-65
2023/03/03 08:09:36;;;;;;;27.50;14.90;;;;;;;0.60;100.00;102456.75;5068385;28;20511;-65
2023/03/03 08:12:04;;;;;;;25.83;15.23;;;;;;;0.62;100.00;102452.69;5068135;28;20028;-65
2023/03/03 08:14:33;;;;;;;25.90;16.10;;;;;;;0.65;100.00;102457.22;5068114;28;20047;-65
2023/03/03 08:16:59;;;;;;;26.80;15.83;;;;;;;0.65;100.00;102453.00;5067194;28;20055;-65
2023/03/03 08:19:26;;;;;;;25.10;14.57;;;;;;;0.66;100.00;102465.03;5068112;28;20056;-65
2023/03/03 08:21:58;;;;;;;24.80;15.67;;;;;;;0.67;100.00;102466.81;5067968;28;20029;-65
2023/03/03 08:24:24;;;;;;;24.17;14.33;;;;;;;0.67;100.00;102466.81;5068069;28;20062;-65
2023/03/03 08:26:49;;;;;;;27.60;14.60;;;;;;;0.68;100.00;102468.63;5068275;28;20017;-65
2023/03/03 08:29:14;;;;;;;22.93;13.70;;;;;;;0.71;100.00;102468.94;5067128;28;20028;-65
2023/03/03 08:31:40;;;;;;;26.10;15.10;;;;;;;0.74;100.00;102470.88;5067496;28;20304;-65
2023/03/03 08:34:05;;;;;;;24.17;14.27;;;;;;;0.76;100.00;102468.47;5067439;28;20020;-65
2023/03/03 08:36:31;;;;;;;20.80;13.73;;;;;;;0.77;100.00;102472.84;5067358;28;20048;-65
2023/03/03 08:38:56;;;;;;;27.33;14.10;;;;;;;0.81;100.00;102474.94;5067399;28;20435;-65
2023/03/03 08:41:21;;;;;;;23.20;14.57;;;;;;;0.83;100.00;102473.41;5065589;28;20492;-65
2023/03/03 08:43:47;;;;;;;23.37;13.87;;;;;;;0.86;100.00;102478.84;5067631;28;20020;-65
2023/03/03 08:46:12;;;;;;;23.00;14.17;;;;;;;0.89;100.00;102476.59;5067468;28;20475;-65
2023/03/03 08:48:38;;;;;;;24.93;14.97;;;;;;;0.94;100.00;102484.69;5065962;28;20494;-65
2023/03/03 08:51:03;;;;;;;27.90;15.57;;;;;;;0.97;100.00;102491.75;5067278;28;20589;-65
2023/03/03 08:53:30;;;;;;;26.57;15.90;;;;;;;0.99;100.00;102491.13;5066852;28;20055;-65
2023/03/03 08:55:55;;;;;;;25.53;15.23;;;;;;;1.01;100.00;102488.75;5067535;28;20491;-65
2023/03/03 08:58:21;;;;;;;25.87;15.10;;;;;;;1.04;100.00;102499.25;5067340;28;20044;-65
2023/03/03 09:00:46;;;;;;;26.87;16.60;;;;;;;1.03;100.00;102493.25;5066865;28;20028;-65
2023/03/03 09:03:11;;;;;;;29.00;16.47;;;;;;;1.05;100.00;102496.84;5067378;28;20024;-65
2023/03/03 09:05:39;;;;;;;30.20;16.77;;;;;;;1.06;100.00;102488.44;5067005;28;20586;-65
2023/03/03 09:08:05;;;;;;;30.07;17.43;;;;;;;1.07;100.00;102504.66;5067312;28;20464;-65
2023/03/03 09:10:31;;;;;;;29.53;17.90;;;;;;;1.10;100.00;102498.97;5067117;28;20033;-65
2023/03/03 09:13:00;;;;;;;26.00;15.67;;;;;;;1.12;100.00;102493.25;5066207;28;20028;-65
2023/03/03 09:15:32;;;;;;;24.20;15.03;;;;;;;1.15;100.00;102500.31;5066845;28;20078;-65
2023/03/03 09:18:01;;;;;;;23.57;14.63;;;;;;;1.16;100.00;102499.56;5067321;28;20036;-65
2023/03/03 09:20:34;;;;;;;24.90;14.50;;;;;;;1.17;100.00;102502.25;5067261;28;20142;-65
2023/03/03 09:23:34;;;;;;;22.03;13.53;;;;;;;1.21;100.00;102506.00;5067088;28;20386;-65
2023/03/03 09:26:25;;;;;;;20.77;12.80;;;;;;;1.26;100.00;102507.34;5067110;28;20028;-65
2023/03/03 09:28:52;;;;;;;22.05;13.07;;;;;;;1.29;100.00;102512.78;5067055;28;20017;-65
2023/03/03 09:31:26;;;;;;;18.90;11.70;;;;;;;1.34;100.00;102513.22;5067107;28;20028;-65
2023/03/03 09:33:56;;;;;;;19.77;12.13;;;;;;;1.39;100.00;102509.44;5067069;28;20361;-65
2023/03/03 09:36:29;;;;;;;18.00;12.27;;;;;;;1.46;100.00;102510.03;5067335;28;20024;-65
2023/03/03 09:38:58;;;;;;;17.37;11.70;;;;;;;1.52;100.00;102513.16;5067496;28;20476;-65
2023/03/03 09:41:54;;;;;;;22.27;12.80;;;;;;;1.57;100.00;102514.50;5066665;28;20535;-65
2023/03/03 09:44:44;;;;;;;19.97;12.80;;;;;;;1.63;100.00;102515.13;5066755;28;20025;-65
2023/03/03 09:47:42;;;;;;;18.43;11.97;;;;;;;1.67;100.00;102517.19;5067290;28;20028;-65
2023/03/03 09:50:25;;;;;;;19.80;11.83;;;;;;;1.71;100.00;102515.81;5067145;28;20415;-65
2023/03/03 09:53:09;;;;;;;19.87;12.10;;;;;;;1.75;100.00;102523.03;5067524;28;20037;-65
2023/03/03 09:55:57;;;;;;;21.60;12.83;;;;;;;1.77;100.00;102523.19;5066892;28;20016;-65
2023/03/03 09:58:51;;;;;;;17.23;10.83;;;;;;;1.80;100.00;102523.47;5067305;28;20028;-65
2023/03/03 10:01:50;;;;;;;16.57;10.93;;;;;;;1.84;100.00;102522.09;5067012;28;20488;-65
2023/03/03 10:04:24;;;;;;;18.40;12.00;;;;;;;1.87;100.00;102513.06;5067082;28;20059;-65
2023/03/03 10:07:22;;;;;;;17.43;11.00;;;;;;;1.92;100.00;102527.19;5067212;28;20066;-65
2023/03/03 10:10:12;;;;;;;16.43;10.17;;;;;;;1.97;100.00;102527.63;5066883;28;20024;-65
2023/03/03 10:12:52;;;;;;;16.67;10.00;;;;;;;2.06;100.00;102532.72;5068513;28;20024;-65
2023/03/03 10:15:24;;;;;;;16.73;10.43;;;;;;;2.12;100.00;102528.16;5070277;28;20079;-65
2023/03/03 10:17:51;;;;;;;16.47;10.07;;;;;;;2.23;100.00;102526.59;5070180;28;20029;-65
2023/03/03 10:20:37;;;;;;;13.67;10.10;;;;;;;2.32;100.00;102525.69;5070169;28;20028;-65
2023/03/03 10:23:19;;;;;;;15.47;10.33;;;;;;;2.40;100.00;102527.28;5070459;28;20039;-65
2023/03/03 10:26:07;;;;;;;16.47;10.43;;;;;;;2.44;100.00;102533.59;5070719;28;20093;-65
2023/03/03 10:28:54;;;;;;;15.90;10.60;;;;;;;2.49;100.00;102527.22;5069529;28;20040;-65
2023/03/03 10:31:34;;;;;;;16.33;10.87;;;;;;;2.52;100.00;102532.63;5070105;28;20066;-65
2023/03/03 10:34:11;;;;;;;15.87;10.57;;;;;;;2.55;100.00;102535.50;5070272;28;20549;-65
2023/03/03 10:36:55;;;;;;;14.00;10.30;;;;;;;2.56;100.00;102532.16;5069853;28;20037;-65
2023/03/03 10:39:57;;;;;;;16.77;10.90;;;;;;;2.58;100.00;102530.66;5070308;28;20025;-65
2023/03/03 10:43:00;;;;;;;14.87;9.80;;;;;;;2.63;100.00;102531.97;5070686;28;20025;-65
2023/03/03 10:45:28;;;;;;;17.13;11.00;;;;;;;2.69;100.00;102525.59;5070109;28;20056;-65
2023/03/03 10:48:27;;;;;;;15.57;10.67;;;;;;;2.74;100.00;102524.34;5069972;28;20032;-65
2023/03/03 10:51:17;;;;;;;14.63;10.57;;;;;;;2.83;100.00;102530.31;5069646;28;20056;-65
2023/03/03 10:53:48;;;;;;;14.70;10.13;;;;;;;2.86;100.00;102530.59;5069420;28;20033;-65
2023/03/03 10:56:21;;;;;;;;;;;;;;;2.89;100.00;102527.44;5070002;28;20024;-65
2023/03/03 10:59:08;;;;;;;18.37;10.13;;;;;;;2.91;100.00;102527.56;5069879;28;20007;-65
2023/03/03 11:01:49;;;;;;;13.93;9.30;;;;;;;2.95;100.00;102527.09;5069710;28;20036;-65
2023/03/03 11:04:15;;;;;;;;;;;;;;;2.98;100.00;102527.34;5070199;28;20065;-65
2023/03/03 11:07:07;;;;;;;14.82;9.20;;;;;;;2.99;100.00;102524.00;5069430;28;19908;-65
2023/03/03 11:09:33;;;;;;;14.80;10.13;;;;;;;3.04;100.00;102522.75;5069564;28;20074;-65
2023/03/03 11:12:17;;;;;;;15.13;9.90;;;;;;;3.11;100.00;102519.13;5069432;28;20028;-65
2023/03/03 11:14:50;;;;;;;14.17;9.43;;;;;;;3.20;100.00;102521.59;5068949;28;20082;-65
2023/03/03 11:17:41;;;;;;;16.33;9.95;;;;;;;3.39;100.00;102524.13;5069581;28;20052;-65
2023/03/03 11:20:06;;;;;;;13.63;8.95;;;;;;;3.64;100.00;102520.25;5069463;28;20025;-65
2023/03/03 11:22:37;;;;;;;13.02;8.82;;;;;;;3.94;100.00;102518.56;5069306;28;20028;-65